CST,Max TemperatureF,Mean TemperatureF,Min TemperatureF,Max Dew PointF,MeanDew PointF,Min DewpointF,Max Humidity, Mean Humidity, Min Humidity, Max Sea Level PressureIn, Mean Sea Level PressureIn, Min Sea Level PressureIn, Max VisibilityMiles, Mean VisibilityMiles, Min VisibilityMiles, Max Wind SpeedMPH, Mean Wind SpeedMPH, Max Gust SpeedMPH,PrecipitationIn, CloudCover, Events, WindDirDegrees
2013-1-1,27,20,12,15,9,2,71,62,39,30.21,30.16,30.10,10,10,10,13,7,18,0.00,2,,321
2013-1-2,27,18,8,12,7,2,81,66,39,30.22,30.16,30.13,10,10,10,15,7,17,0.00,0,,224
2013-1-3,31,25,19,24,18,12,85,72,58,30.27,30.18,30.11,10,10,5,16,10,23,0.00,7,,260
2013-1-4,36,24,13,22,17,9,87,72,46,30.26,30.22,30.15,10,10,10,22,12,31,0.03,0,,238
2013-1-5,37,27,17,32,25,14,99,87,60,30.25,30.14,29.97,10,8,0,18,8,26,0.01,4,Rain-Snow,206
2013-1-6,34,26,16,32,23,14,94,81,64,30.34,30.11,29.92,10,9,5,21,12,30,0.01,5,,266
2013-1-7,37,25,13,25,20,12,94,80,56,30.36,30.25,30.13,10,9,5,22,9,32,0.00,0,,200
2013-1-8,41,32,23,30,26,21,90,78,60,30.19,30.13,30.05,10,9,5,17,8,23,0.00,0,,194
2013-1-9,50,36,21,32,24,13,86,59,26,30.49,30.27,30.04,10,10,10,28,14,39,0.00,1,Rain,260
2013-1-10,43,31,19,41,27,16,97,77,47,30.51,30.28,29.91,10,8,2,20,6,24,0.45,3,Rain-Thunderstorm,127
2013-1-11,53,48,42,52,48,41,100,91,85,29.89,29.77,29.69,10,8,2,21,13,26,0.15,6,Rain,194
2013-1-12,53,42,32,47,38,28,93,78,56,29.97,29.87,29.75,10,10,4,21,13,29,0.04,3,Rain-Snow,255
2013-1-13,32,23,14,31,22,8,96,88,76,30.25,30.02,29.86,10,7,1,20,9,29,0.01,7,Rain-Snow,301
2013-1-14,25,18,11,14,10,7,93,76,54,30.45,30.40,30.25,10,10,7,9,5,,0.00,0,,266
2013-1-15,31,20,10,19,15,8,95,79,53,30.43,30.32,30.11,10,10,7,7,1,,0.01,0,,141
2013-1-16,36,25,14,26,20,12,93,76,54,30.11,29.99,29.86,10,10,7,23,7,30,0.00,4,,232
2013-1-17,32,24,15,28,14,4,88,58,30,30.41,30.27,30.06,10,10,10,14,5,20,0.00,1,,318
2013-1-18,39,26,14,28,21,11,89,71,53,30.43,30.21,29.96,10,10,10,30,11,38,0.00,1,,205
2013-1-19,48,40,31,35,30,13,78,65,42,29.97,29.85,29.74,10,10,10,36,16,50,0.00,1,,237
2013-1-20,30,22,13,12,3,0,62,50,39,30.29,30.20,29.91,10,10,10,29,15,41,0.00,3,,292
2013-1-21,15,10,4,7,-2,-9,80,58,41,30.27,30.19,30.13,10,9,0,21,11,32,0.00,4,Snow,286
2013-1-22,12,6,0,-3,-6,-8,68,55,41,30.39,30.33,30.26,10,10,10,15,9,22,0.00,1,,282
2013-1-23,21,16,10,14,4,-4,86,59,47,30.33,30.22,30.11,10,9,0,17,9,26,0.00,7,Snow,263
2013-1-24,21,14,7,8,2,-2,79,59,37,30.62,30.49,30.30,10,10,2,17,10,24,0.00,1,Snow,77
2013-1-25,28,23,18,20,15,7,89,72,58,30.39,30.11,29.99,10,9,1,15,8,22,0.00,8,Snow,212
2013-1-26,29,20,12,18,11,7,80,65,41,30.40,30.33,30.16,10,10,10,12,6,22,0.01,2,,321
2013-1-27,35,28,22,35,23,17,97,79,65,30.39,30.21,29.94,10,8,1,20,9,26,0.10,6,Rain-Snow-Thunderstorm,152
2013-1-28,50,43,36,49,44,35,100,95,87,29.96,29.90,29.84,7,3,0,21,12,28,0.84,8,Fog-Rain-Thunderstorm,209
2013-1-29,60,54,48,57,54,47,99,93,88,29.84,29.61,29.40,10,5,0,26,15,40,1.06,8,Rain-Thunderstorm,200
2013-1-30,50,36,22,50,34,17,99,91,75,29.62,29.36,29.18,10,6,0,22,9,38,0.34,8,Rain-Snow,316
2013-1-31,21,14,5,17,8,-2,83,72,66,30.14,29.87,29.63,10,8,0,26,18,34,0.00,8,Snow,279